Private Wetterstation Nrnberg - Katzwang
Wetterdaten: Juli 2015
Datum Temp. A. Feuchte A. Luftdruck Regen Wind Richtung Taupunkt Windchill Windben
01.07.2015 26,0 C 57 % 1017 hPa 0,0 l/m 0,0 km/h O 16,3 C 26,0 C 0,0 km/h
02.07.2015 27,5 C 51 % 1019 hPa 0,0 l/m 6,7 km/h O 15,9 C 26,4 C 4,6 km/h
03.07.2015 28,9 C 53 % 1021 hPa 0,0 l/m 29,8 km/h O-NO 17,6 C 28,9 C 27,3 km/h
04.07.2015 30,0 C 53 % 1018 hPa 0,0 l/m 0,0 km/h O 18,5 C 30,0 C 0,0 km/h
05.07.2015 32,2 C 47 % 1013 hPa 0,0 l/m 33,0 km/h NO 18,5 C 31,1 C 22,8 km/h
06.07.2015 26,1 C 50 % 1017 hPa 0,0 l/m 0,0 km/h W-NW 14,1 C 26,1 C 0,0 km/h
07.07.2015 30,1 C 48 % 1007 hPa 0,5 l/m 21,0 km/h W-NW 17,3 C 30,0 C 14,4 km/h
08.07.2015 21,3 C 53 % 1010 hPa 1,0 l/m 34,2 km/h W-NW 10,9 C 18,2 C 37,8 km/h
09.07.2015 17,1 C 60 % 1017 hPa 4,1 l/m 48,4 km/h W-NW 9,0 C 10,8 C 49,3 km/h
10.07.2015 18,4 C 50 % 1019 hPa 0,0 l/m 0,0 km/h W-NW 7,0 C 18,4 C 0,0 km/h
11.07.2015 23,4 C 45 % 1014 hPa 0,0 l/m 0,0 km/h W-NW 9,8 C 23,4 C 0,0 km/h
12.07.2015 23,4 C 46 % 1014 hPa 0,0 l/m 22,0 km/h W-NW 10,6 C 20,9 C 15,1 km/h
13.07.2015 19,7 C 66 % 1016 hPa 0,0 l/m 11,1 km/h W-NW 13,1 C 17,6 C 7,6 km/h
14.07.2015 21,6 C 69 % 1015 hPa 0,5 l/m 14,4 km/h W-NW 15,6 C 20,2 C 9,9 km/h
15.07.2015 22,8 C 63 % 1016 hPa 0,0 l/m 0,0 km/h W-NW 15,2 C 22,8 C 0,0 km/h
16.07.2015 26,7 C 52 % 1015 hPa 0,0 l/m 11,0 km/h NO 15,5 C 26,7 C 7,6 km/h
17.07.2015 29,8 C 46 % 1013 hPa 0,0 l/m 0,0 km/h W-NW 15,7 C 29,8 C 0,0 km/h
18.07.2015 25,7 C 55 % 1014 hPa 0,0 l/m 15,4 km/h W-NW 15,7 C 25,3 C 10,6 km/h
19.07.2015 23,5 C 68 % 1010 hPa 1,0 l/m 31,9 km/h W-NW 17,3 C 19,9 C 22,0 km/h
20.07.2015 24,1 C 65 % 1013 hPa 0,0 l/m 0,0 km/h W-NW 16,8 C 24,1 C 0,0 km/h
21.07.2015 27,1 C 56 % 1013 hPa 0,0 l/m 12,1 km/h W-NW 17,3 C 27,0 C 8,4 km/h
22.07.2015 26,4 C 65 % 1011 hPa 0,5 l/m 0,0 km/h N 18,0 C 26,4 C 0,0 km/h
23.07.2015 21,6 C 74 % 1013 hPa 3,6 l/m 12,3 km/h NO 16,8 C 20,1 C 10,1 km/h
24.07.2015 25,3 C 60 % 1007 hPa 0,0 l/m 5,4 km/h O 16,5 C 25,1 C 4,4 km/h
25.07.2015 20,9 C 54 % 1009 hPa 0,0 l/m 18,6 km/h W-NW 10,5 C 19,5 C 25,0 km/h
26.07.2015 20,2 C 46 % 1010 hPa 0,0 l/m 0,6 km/h W-NW 7,5 C 20,2 C 0,5 km/h
27.07.2015 19,5 C 60 % 1005 hPa 1,0 l/m 6,3 km/h W-NW 11,4 C 18,3 C 5,2 km/h
28.07.2015 19,6 C 52 % 1007 hPa 0,0 l/m 6,9 km/h W-NW 9,3 C 18,4 C 5,7 km/h
29.07.2015 15,4 C 71 % 1009 hPa 1,6 l/m 1,0 km/h W-NW 10,2 C 15,4 C 0,8 km/h
30.07.2015 17,1 C 54 % 1013 hPa 0,0 l/m 3,5 km/h W-NW 7,3 C 16,5 C 2,9 km/h
31.07.2015 18,4 C 50 % 1014 hPa 0,0 l/m 3,8 km/h N-NO 7,0 C 18,1 C 3,2 km/h
Min-Datum 31.07.15 05.07.15 25.07.15 9 Tage 01.07.15 - 10.07.15 11.07.15 01.07.15
Min-Zeit 06:20 15:10 01:30 - 00:00 - 20:00 07:40 00:00
Minimum 8,3 C 26 % 1003 hPa - 0,0 km/h - 4,0 C 4,1 C 0,0 km/h
Max-Datum 05.07.15 23.07.15 03.07.15 09.07.15 05.07.15 - 05.07.15 05.07.15 08.07.15
Max-Zeit 14:20 07:40 06:20 10:10 14:20 - 11:50 14:20 13:50
Maximum 39,9 C 83 % 1022 hPa 4,1 l/m 176,4 km/h
NO
- 20,9 C 39,9 C 248,2 km/h
W-NW
Durchschnitt 23,5 C 56 % 1013 hPa #14,0 l/m 11,3 km/h W-NW 13,6 C 22,6 C 9,5 km/h

Durchschnitt Minimum Temp.16,7 C
Durchschnitt Maximum Temp.29,6 C